createdAt,value
2018-02-22T00:01:22.670Z,56.20
2018-02-22T00:03:51.033Z,56.40
2018-02-22T00:06:19.389Z,56.50
2018-02-22T00:08:47.001Z,56.50
2018-02-22T00:11:14.574Z,56.60
2018-02-22T00:13:42.178Z,56.30
2018-02-22T00:16:09.773Z,56.90
2018-02-22T00:18:37.355Z,56.60
2018-02-22T00:21:04.963Z,56.60
2018-02-22T00:23:33.322Z,56.50
2018-02-22T00:26:00.917Z,56.40
2018-02-22T00:28:29.256Z,56.90
2018-02-22T00:30:56.840Z,56.80
2018-02-22T00:33:24.416Z,56.70
2018-02-22T00:35:52.009Z,56.40
2018-02-22T00:38:19.608Z,57.40
2018-02-22T00:40:47.206Z,56.70
2018-02-22T00:43:14.781Z,56.70
2018-02-22T00:45:42.373Z,56.80
2018-02-22T00:48:09.964Z,57.00
2018-02-22T00:50:38.324Z,57.00
2018-02-22T00:53:05.897Z,57.00
2018-02-22T00:55:33.495Z,57.30
2018-02-22T00:58:01.077Z,57.10
2018-02-22T01:00:28.687Z,57.10
2018-02-22T01:02:56.260Z,57.30
2018-02-22T01:05:23.894Z,57.10
2018-02-22T01:07:52.729Z,57.50
2018-02-22T01:10:20.325Z,57.40
2018-02-22T01:12:47.925Z,57.70
2018-02-22T01:15:15.518Z,57.20
2018-02-22T01:17:43.099Z,57.70
2018-02-22T01:20:10.715Z,57.70
2018-02-22T01:22:38.306Z,57.70
2018-02-22T01:25:05.908Z,58.40
2018-02-22T01:27:33.472Z,57.80
2018-02-22T01:30:01.060Z,57.60
2018-02-22T01:32:28.642Z,57.70
2018-02-22T01:34:56.816Z,58.20
2018-02-22T01:37:24.401Z,58.10
2018-02-22T01:39:52.003Z,57.60
2018-02-22T01:42:19.569Z,57.90
2018-02-22T01:44:47.169Z,57.90
2018-02-22T01:47:14.748Z,57.90
2018-02-22T01:49:42.344Z,57.60
2018-02-22T01:52:09.909Z,57.70
2018-02-22T01:54:37.498Z,57.80
2018-02-22T01:57:05.108Z,57.90
2018-02-22T01:59:32.673Z,57.90
2018-02-22T02:02:00.270Z,57.80
2018-02-22T02:04:28.619Z,58.30
2018-02-22T02:06:56.225Z,58.30
2018-02-22T02:09:23.820Z,58.10
2018-02-22T02:11:51.410Z,58.00
2018-02-22T02:14:18.993Z,57.80
2018-02-22T02:16:46.589Z,58.20
2018-02-22T02:19:14.180Z,58.10
2018-02-22T02:21:41.788Z,58.40
2018-02-22T02:24:10.130Z,58.10
2018-02-22T02:26:37.738Z,58.00
2018-02-22T02:29:05.898Z,57.90
2018-02-22T02:31:33.497Z,58.00
2018-02-22T02:34:01.103Z,58.00
2018-02-22T02:36:28.758Z,57.70
2018-02-22T02:38:56.357Z,58.20
2018-02-22T02:41:23.951Z,58.20
2018-02-22T02:43:51.530Z,58.20
2018-02-22T02:46:19.134Z,58.20
2018-02-22T02:48:46.722Z,58.40
2018-02-22T02:51:14.339Z,58.20
2018-02-22T02:53:42.691Z,58.10
2018-02-22T02:56:10.296Z,58.00
2018-02-22T02:58:37.867Z,58.00
2018-02-22T03:01:05.460Z,58.40
2018-02-22T03:03:33.040Z,58.40
2018-02-22T03:06:00.636Z,58.40
2018-02-22T03:08:28.225Z,57.90
2018-02-22T03:10:55.860Z,58.40
2018-02-22T03:13:23.444Z,58.60
2018-02-22T03:15:51.053Z,58.10
2018-02-22T03:18:19.390Z,58.70
2018-02-22T03:20:46.997Z,58.70
2018-02-22T03:23:14.580Z,58.30
2018-02-22T03:25:42.197Z,58.10
2018-02-22T03:28:09.774Z,58.10
2018-02-22T03:30:37.363Z,57.90
2018-02-22T03:33:05.071Z,58.80
2018-02-22T03:35:32.657Z,58.40
2018-02-22T03:38:01.017Z,58.40
2018-02-22T03:40:29.329Z,58.40
2018-02-22T03:42:56.933Z,58.60
2018-02-22T03:45:24.514Z,58.60
2018-02-22T03:47:52.870Z,59.10
2018-02-22T03:50:20.465Z,59.00
2018-02-22T03:52:48.101Z,58.60
2018-02-22T03:55:15.681Z,58.60
2018-02-22T03:57:44.049Z,58.40
2018-02-22T04:00:11.628Z,58.40
2018-02-22T04:02:39.227Z,58.50
2018-02-22T04:05:06.810Z,58.50
2018-02-22T04:07:34.416Z,58.80
2018-02-22T04:10:01.994Z,58.70
2018-02-22T04:12:29.596Z,58.60
2018-02-22T04:14:57.179Z,58.80
2018-02-22T04:17:25.772Z,58.70
2018-02-22T04:19:53.375Z,58.90
2018-02-22T04:22:20.969Z,58.70
2018-02-22T04:24:49.314Z,58.60
2018-02-22T04:27:16.920Z,58.60
2018-02-22T04:29:45.108Z,58.40
2018-02-22T04:32:12.708Z,58.80
2018-02-22T04:34:40.289Z,58.70
2018-02-22T04:37:07.897Z,58.60
2018-02-22T04:39:35.476Z,58.70
2018-02-22T04:42:03.089Z,58.60
2018-02-22T04:44:31.425Z,58.80
2018-02-22T04:46:59.020Z,58.70
2018-02-22T04:49:26.589Z,58.50
2018-02-22T04:51:54.177Z,59.20
2018-02-22T04:54:21.765Z,58.50
2018-02-22T04:56:50.869Z,58.00
2018-02-22T04:59:18.456Z,58.50
2018-02-22T05:01:46.059Z,57.90
2018-02-22T05:04:13.630Z,58.30
2018-02-22T05:06:41.775Z,58.20
2018-02-22T05:09:09.703Z,58.10
2018-02-22T05:11:37.343Z,58.20
2018-02-22T05:14:04.964Z,58.20
2018-02-22T05:16:32.582Z,58.00
2018-02-22T05:19:00.209Z,57.90
2018-02-22T05:21:27.828Z,57.90
2018-02-22T05:23:55.620Z,58.00
2018-02-22T05:26:23.207Z,57.90
2018-02-22T05:28:50.822Z,58.10
2018-02-22T05:31:18.402Z,58.10
2018-02-22T05:33:46.660Z,58.30
2018-02-22T05:36:14.248Z,58.20
2018-02-22T05:38:42.275Z,58.10
2018-02-22T05:41:10.050Z,58.20
2018-02-22T05:43:38.409Z,58.10
2018-02-22T05:46:06.178Z,58.10
2018-02-22T05:48:33.785Z,57.90
2018-02-22T05:51:01.877Z,57.90
2018-02-22T05:53:30.099Z,57.90
2018-02-22T05:55:58.221Z,57.90
2018-02-22T05:58:26.785Z,57.80
2018-02-22T06:00:54.969Z,58.10
2018-02-22T06:03:22.562Z,58.20
2018-02-22T06:05:50.131Z,58.20
2018-02-22T06:08:17.749Z,58.00
2018-02-22T06:10:47.047Z,58.20
2018-02-22T06:13:14.887Z,57.80
2018-02-22T06:15:42.511Z,57.70
2018-02-22T06:18:10.112Z,57.70
2018-02-22T06:20:37.691Z,57.70
2018-02-22T06:23:05.874Z,57.80
2018-02-22T06:25:33.466Z,57.80
2018-02-22T06:28:01.067Z,58.10
2018-02-22T06:30:28.648Z,57.90
2018-02-22T06:32:56.299Z,57.90
2018-02-22T06:35:23.841Z,57.70
2018-02-22T06:37:51.445Z,57.80
2018-02-22T06:40:19.782Z,57.80
2018-02-22T06:42:47.386Z,57.80
2018-02-22T06:45:14.964Z,57.90
2018-02-22T06:47:42.573Z,57.70
2018-02-22T06:50:10.149Z,57.40
2018-02-22T06:52:38.494Z,57.40
2018-02-22T06:55:06.102Z,57.40
2018-02-22T06:57:33.683Z,57.40
2018-02-22T07:00:01.278Z,57.30
2018-02-22T07:02:28.852Z,57.80
2018-02-22T07:04:56.451Z,57.80
2018-02-22T07:07:24.026Z,57.90
2018-02-22T07:09:51.626Z,57.60
2018-02-22T07:12:19.210Z,57.80
2018-02-22T07:14:46.829Z,57.80
2018-02-22T07:17:14.400Z,57.60
2018-02-22T07:19:42.009Z,57.60
2018-02-22T07:22:09.623Z,57.40
2018-02-22T07:24:37.226Z,57.40
2018-02-22T07:27:04.828Z,57.60
2018-02-22T07:29:32.427Z,57.70
2018-02-22T07:31:59.993Z,57.40
2018-02-22T07:34:28.361Z,57.50
2018-02-22T07:36:56.700Z,57.50
2018-02-22T07:39:24.294Z,57.40
2018-02-22T07:41:52.666Z,57.40
2018-02-22T07:44:20.266Z,57.40
2018-02-22T07:46:47.869Z,57.80
2018-02-22T07:49:15.460Z,57.70
2018-02-22T07:51:43.035Z,57.40
2018-02-22T07:54:10.629Z,57.60
2018-02-22T07:56:38.205Z,57.40
2018-02-22T07:59:05.807Z,57.20
2018-02-22T08:01:33.381Z,57.40
2018-02-22T08:04:00.977Z,57.30
2018-02-22T08:06:28.550Z,57.40
2018-02-22T08:08:56.159Z,57.40
2018-02-22T08:11:23.810Z,57.10
2018-02-22T08:13:51.409Z,56.80
2018-02-22T08:16:19.021Z,56.70
2018-02-22T08:18:46.618Z,56.70
2018-02-22T08:21:14.188Z,57.20
2018-02-22T08:23:41.916Z,57.10
2018-02-22T08:26:09.528Z,56.20
2018-02-22T08:28:37.690Z,56.50
2018-02-22T08:31:05.606Z,55.90
2018-02-22T08:33:34.493Z,56.00
2018-02-22T08:36:02.630Z,55.90
2018-02-22T08:38:30.895Z,56.10
2018-02-22T08:40:58.548Z,56.20
2018-02-22T08:43:26.163Z,55.70
2018-02-22T08:45:53.776Z,56.00
2018-02-22T08:48:21.354Z,55.70
2018-02-22T08:50:49.708Z,54.90
2018-02-22T08:53:17.956Z,54.90
2018-02-22T08:55:46.382Z,54.20
2018-02-22T08:58:13.995Z,54.10
2018-02-22T09:00:41.599Z,54.90
2018-02-22T09:03:09.169Z,54.00
2018-02-22T09:05:37.521Z,53.30
2018-02-22T09:08:05.123Z,53.20
2018-02-22T09:10:32.709Z,52.90
2018-02-22T09:13:00.282Z,53.20
2018-02-22T09:15:27.873Z,52.60
2018-02-22T09:17:55.441Z,53.20
2018-02-22T09:20:23.985Z,52.90
2018-02-22T09:22:51.550Z,51.70
2018-02-22T09:25:19.144Z,52.00
2018-02-22T09:27:46.709Z,51.40
2018-02-22T09:30:15.071Z,51.00
2018-02-22T09:32:43.405Z,52.20
2018-02-22T09:35:10.988Z,51.60
2018-02-22T09:37:38.558Z,51.10
2018-02-22T09:40:06.145Z,51.30
2018-02-22T09:42:34.473Z,50.00
2018-02-22T09:45:02.060Z,50.10
2018-02-22T09:47:30.394Z,49.80
2018-02-22T09:49:57.987Z,49.80
2018-02-22T09:52:25.557Z,48.80
2018-02-22T09:54:53.909Z,49.90
2018-02-22T09:57:21.516Z,49.90
2018-02-22T09:59:49.104Z,49.00
2018-02-22T10:02:16.669Z,48.80
2018-02-22T10:04:44.267Z,48.80
2018-02-22T10:07:11.838Z,47.20
2018-02-22T10:09:40.197Z,48.40
2018-02-22T10:12:07.760Z,48.30
2018-02-22T10:14:35.338Z,48.80
2018-02-22T10:17:02.926Z,45.90
2018-02-22T10:19:30.493Z,46.40
2018-02-22T10:21:58.092Z,45.30
2018-02-22T10:24:25.669Z,47.90
2018-02-22T10:26:53.259Z,44.50
2018-02-22T10:29:20.835Z,45.00
2018-02-22T10:31:48.422Z,44.00
2018-02-22T10:34:15.990Z,46.20
2018-02-22T10:36:43.577Z,44.20
2018-02-22T10:39:11.149Z,44.40
2018-02-22T10:41:38.755Z,43.60
2018-02-22T10:44:06.325Z,44.30
2018-02-22T10:46:33.918Z,44.60
2018-02-22T10:49:01.502Z,44.00
2018-02-22T10:51:29.113Z,43.20
2018-02-22T10:53:57.454Z,44.10
2018-02-22T10:56:25.054Z,43.90
2018-02-22T10:58:53.391Z,43.20
2018-02-22T11:01:26.545Z,43.20
2018-02-22T11:03:54.119Z,42.90
2018-02-22T11:06:21.714Z,43.70
2018-02-22T11:08:49.284Z,43.80
2018-02-22T11:11:16.874Z,44.40
2018-02-22T11:13:44.445Z,43.30
2018-02-22T11:16:12.032Z,43.10
2018-02-22T11:18:39.616Z,43.90
2018-02-22T11:21:07.258Z,43.70
2018-02-22T11:23:34.824Z,43.20
2018-02-22T11:26:02.418Z,43.50
2018-02-22T11:28:30.748Z,43.90
2018-02-22T11:30:58.336Z,43.80
2018-02-22T11:33:25.924Z,44.20
2018-02-22T11:35:53.513Z,42.80
2018-02-22T11:38:21.106Z,43.40
2018-02-22T11:40:48.705Z,43.90
2018-02-22T11:43:16.280Z,43.70
2018-02-22T11:45:43.868Z,43.50
2018-02-22T11:48:11.428Z,43.90
2018-02-22T11:50:39.063Z,43.60
2018-02-22T11:53:06.633Z,43.60
2018-02-22T11:55:34.206Z,43.70
2018-02-22T11:58:01.814Z,42.90
2018-02-22T12:00:30.148Z,42.50
2018-02-22T12:02:57.742Z,42.40
2018-02-22T12:05:26.076Z,42.70
2018-02-22T12:07:53.665Z,42.60
2018-02-22T12:10:21.233Z,42.50
2018-02-22T12:12:49.585Z,42.40
2018-02-22T12:15:17.159Z,42.40
2018-02-22T12:17:44.744Z,42.80
2018-02-22T12:20:13.082Z,42.90
2018-02-22T12:22:40.678Z,42.80
2018-02-22T12:25:09.071Z,42.80
2018-02-22T12:27:36.624Z,42.70
2018-02-22T12:30:04.189Z,43.40
2018-02-22T12:32:31.778Z,42.60
2018-02-22T12:34:59.346Z,42.40
2018-02-22T12:37:26.937Z,42.90
2018-02-22T12:39:55.269Z,43.20
2018-02-22T12:42:22.860Z,43.10
2018-02-22T12:44:50.429Z,42.40
2018-02-22T12:47:18.026Z,42.90
2018-02-22T12:49:45.620Z,43.50
2018-02-22T12:52:13.209Z,43.50
2018-02-22T12:54:41.537Z,42.80
2018-02-22T12:57:09.122Z,42.80
2018-02-22T12:59:36.685Z,43.20
2018-02-22T13:02:04.274Z,42.40
2018-02-22T13:04:32.600Z,42.30
2018-02-22T13:07:00.190Z,42.20
2018-02-22T13:09:27.758Z,42.00
2018-02-22T13:11:55.345Z,41.50
2018-02-22T13:14:22.928Z,40.80
2018-02-22T13:16:50.546Z,40.80
2018-02-22T13:19:18.886Z,41.10
2018-02-22T13:21:46.481Z,41.10
2018-02-22T13:24:14.051Z,40.30
2018-02-22T13:26:41.658Z,40.70
2018-02-22T13:29:09.268Z,40.90
2018-02-22T13:31:37.622Z,40.70
2018-02-22T13:34:16.881Z,40.60
2018-02-22T13:36:44.470Z,41.10
2018-02-22T13:39:12.029Z,40.40
2018-02-22T13:41:39.625Z,40.10
2018-02-22T13:44:18.992Z,40.50
2018-02-22T13:46:46.585Z,40.50
2018-02-22T13:49:26.002Z,40.30
2018-02-22T13:51:53.589Z,40.40
2018-02-22T13:54:21.163Z,40.90
2018-02-22T13:57:00.488Z,40.80
2018-02-22T13:59:28.538Z,39.80
2018-02-22T14:02:07.949Z,40.60
2018-02-22T14:04:35.513Z,40.90
2018-02-22T14:07:03.105Z,40.30
2018-02-22T14:09:30.668Z,40.30
2018-02-22T14:11:58.261Z,39.60
2018-02-22T14:14:25.834Z,39.70
2018-02-22T14:16:53.407Z,39.60
2018-02-22T14:19:21.001Z,39.80
2018-02-22T14:21:48.570Z,39.30
2018-02-22T14:24:16.171Z,39.60
2018-02-22T14:29:17.702Z,39.50
2018-02-22T14:31:45.274Z,40.10
2018-02-22T14:34:12.865Z,39.90
2018-02-22T14:36:41.249Z,39.00
2018-02-22T14:39:08.837Z,39.10
2018-02-22T14:41:36.405Z,40.20
2018-02-22T14:44:03.984Z,40.20
2018-02-22T14:46:31.550Z,40.00
2018-02-22T14:48:59.163Z,39.60
2018-02-22T14:51:27.590Z,40.50
2018-02-22T14:53:55.185Z,40.50
2018-02-22T14:56:22.768Z,40.80
2018-02-22T14:58:50.359Z,39.70
2018-02-22T15:01:17.922Z,39.70
2018-02-22T15:03:45.504Z,40.10
2018-02-22T15:06:13.838Z,39.70
2018-02-22T15:08:41.431Z,39.60
2018-02-22T15:11:09.000Z,39.90
2018-02-22T15:13:36.590Z,39.40
2018-02-22T15:16:04.188Z,39.20
2018-02-22T15:18:31.777Z,40.00
2018-02-22T15:21:00.117Z,39.80
2018-02-22T15:23:27.706Z,39.80
2018-02-22T15:25:56.041Z,39.90
2018-02-22T15:28:23.630Z,39.90
2018-02-22T15:30:51.221Z,40.20
2018-02-22T15:33:18.810Z,40.90
2018-02-22T15:35:46.369Z,40.20
2018-02-22T15:38:13.960Z,40.70
2018-02-22T15:40:41.521Z,40.50
2018-02-22T15:43:09.121Z,41.00
2018-02-22T15:45:36.698Z,40.80
2018-02-22T15:48:04.313Z,40.20
2018-02-22T15:50:32.924Z,40.00
2018-02-22T15:53:00.529Z,40.00
2018-02-22T15:55:28.094Z,40.60
2018-02-22T15:57:55.693Z,40.60
2018-02-22T16:00:23.273Z,40.80
2018-02-22T16:02:50.828Z,41.80
2018-02-22T16:05:18.409Z,41.70
2018-02-22T16:07:45.972Z,41.50
2018-02-22T16:10:13.566Z,41.70
2018-02-22T16:12:41.898Z,41.40
2018-02-22T16:15:09.498Z,41.30
2018-02-22T16:17:37.066Z,41.20
2018-02-22T16:20:04.666Z,41.70
2018-02-22T16:22:32.237Z,41.60
2018-02-22T16:24:59.828Z,42.00
2018-02-22T16:27:27.436Z,41.90
2018-02-22T16:29:55.034Z,41.60
2018-02-22T16:32:22.600Z,41.90
2018-02-22T16:34:50.185Z,41.80
2018-02-22T16:37:17.761Z,42.60
2018-02-22T16:39:45.362Z,42.60
2018-02-22T16:42:12.930Z,42.40
2018-02-22T16:44:40.512Z,42.60
2018-02-22T16:47:08.198Z,42.10
2018-02-22T16:49:35.793Z,42.70
2018-02-22T16:52:03.362Z,42.80
2018-02-22T16:54:30.967Z,43.30
2018-02-22T16:56:58.537Z,43.30
2018-02-22T16:59:26.118Z,42.70
2018-02-22T17:01:53.687Z,42.30
2018-02-22T17:04:21.273Z,43.20
2018-02-22T17:06:48.835Z,43.50
2018-02-22T17:09:16.428Z,43.20
2018-02-22T17:11:44.757Z,43.80
2018-02-22T17:14:12.361Z,43.80
2018-02-22T17:16:40.698Z,44.60
2018-02-22T17:19:08.310Z,44.50
2018-02-22T17:21:35.865Z,44.40
2018-02-22T17:24:03.464Z,44.10
2018-02-22T17:26:36.712Z,44.10
2018-02-22T17:29:10.610Z,44.90
2018-02-22T17:31:44.581Z,44.20
2018-02-22T17:34:12.174Z,44.10
2018-02-22T17:36:43.352Z,44.60
2018-02-22T17:39:16.652Z,44.20
2018-02-22T17:41:44.213Z,44.20
2018-02-22T17:44:11.798Z,44.50
2018-02-22T17:46:39.361Z,44.40
2018-02-22T17:49:06.984Z,45.00
2018-02-22T17:51:34.552Z,44.60
2018-02-22T17:54:02.117Z,44.50
2018-02-22T17:56:29.706Z,44.90
2018-02-22T17:58:57.274Z,44.60
2018-02-22T18:01:25.633Z,44.80
2018-02-22T18:03:53.204Z,44.60
2018-02-22T18:06:20.807Z,44.00
2018-02-22T18:08:48.377Z,44.90
2018-02-22T18:11:15.975Z,45.30
2018-02-22T18:13:43.549Z,44.80
2018-02-22T18:16:12.267Z,44.60
2018-02-22T18:18:39.846Z,44.50
2018-02-22T18:21:07.429Z,44.30
2018-02-22T18:23:35.013Z,44.30
2018-02-22T18:26:02.686Z,44.30
2018-02-22T18:28:31.022Z,44.50
2018-02-22T18:30:58.613Z,44.50
2018-02-22T18:33:26.177Z,44.70
2018-02-22T18:35:54.082Z,44.60
2018-02-22T18:38:21.644Z,44.80
2018-02-22T18:40:54.933Z,44.90
2018-02-22T18:43:28.092Z,44.80
2018-02-22T18:45:56.454Z,45.10
2018-02-22T18:48:24.055Z,45.00
2018-02-22T18:50:51.653Z,45.30
2018-02-22T18:53:19.216Z,45.80
2018-02-22T18:55:46.840Z,45.90
2018-02-22T18:58:14.398Z,45.60
2018-02-22T19:00:42.001Z,45.70
2018-02-22T19:03:09.570Z,45.70
2018-02-22T19:05:37.961Z,45.70
2018-02-22T19:08:05.641Z,45.60
2018-02-22T19:10:33.249Z,45.90
2018-02-22T19:13:00.859Z,46.00
2018-02-22T19:15:28.444Z,45.90
2018-02-22T19:17:57.244Z,46.20
2018-02-22T19:20:25.641Z,46.80
2018-02-22T19:22:53.201Z,46.80
2018-02-22T19:25:21.305Z,45.70
2018-02-22T19:27:49.281Z,46.30
2018-02-22T19:30:17.439Z,46.40
2018-02-22T19:32:45.085Z,46.70
2018-02-22T19:35:12.678Z,46.50
2018-02-22T19:37:40.412Z,46.60
2018-02-22T19:40:08.476Z,46.40
2018-02-22T19:42:36.279Z,46.70
2018-02-22T19:45:04.038Z,46.50
2018-02-22T19:47:31.635Z,46.20
2018-02-22T19:49:59.893Z,46.40
2018-02-22T19:52:28.914Z,46.70
2018-02-22T19:54:56.549Z,46.90
2018-02-22T19:57:24.888Z,46.90
2018-02-22T19:59:52.521Z,47.10
2018-02-22T20:02:20.240Z,46.70
2018-02-22T20:04:47.810Z,46.50
2018-02-22T20:07:15.410Z,47.50
2018-02-22T20:09:43.794Z,47.30
2018-02-22T20:12:12.149Z,47.40
2018-02-22T20:14:39.964Z,47.30
2018-02-22T20:17:08.452Z,46.90
2018-02-22T20:19:36.070Z,46.90
2018-02-22T20:22:04.471Z,47.40
2018-02-22T20:24:32.046Z,47.40
2018-02-22T20:26:59.642Z,47.70
2018-02-22T20:29:27.205Z,47.50
2018-02-22T20:31:54.797Z,47.80
2018-02-22T20:34:22.369Z,47.20
2018-02-22T20:36:50.010Z,47.50
2018-02-22T20:39:17.582Z,47.60
2018-02-22T20:41:45.990Z,47.30
2018-02-22T20:44:13.569Z,47.20
2018-02-22T20:46:41.927Z,48.10
2018-02-22T20:49:10.159Z,48.10
2018-02-22T20:51:41.107Z,47.80
2018-02-22T20:54:09.431Z,48.00
2018-02-22T20:56:37.041Z,48.00
2018-02-22T20:59:04.717Z,47.90
2018-02-22T21:01:32.510Z,47.90
2018-02-22T21:04:00.250Z,47.90
2018-02-22T21:06:27.835Z,48.20
2018-02-22T21:08:55.405Z,48.00
2018-02-22T21:11:23.766Z,47.90
2018-02-22T21:13:51.376Z,48.40
2018-02-22T21:16:19.184Z,48.30
2018-02-22T21:18:47.014Z,48.40
2018-02-22T21:21:14.717Z,48.50
2018-02-22T21:23:42.378Z,48.50
2018-02-22T21:26:10.001Z,48.30
2018-02-22T21:28:38.345Z,48.60
2018-02-22T21:31:05.916Z,48.60
2018-02-22T21:33:33.822Z,48.80
2018-02-22T21:36:01.536Z,48.40
2018-02-22T21:38:29.120Z,48.50
2018-02-22T21:40:58.945Z,49.10
2018-02-22T21:43:26.658Z,49.00
2018-02-22T21:45:54.220Z,48.90
2018-02-22T21:48:21.810Z,49.10
2018-02-22T21:50:49.377Z,48.80
2018-02-22T21:53:16.970Z,48.70
2018-02-22T21:55:44.534Z,48.50
2018-02-22T21:58:12.129Z,48.60
2018-02-22T22:00:39.702Z,48.90
2018-02-22T22:03:08.062Z,48.80
2018-02-22T22:05:35.633Z,48.80
2018-02-22T22:08:03.222Z,48.90
2018-02-22T22:10:30.806Z,48.90
2018-02-22T22:12:58.398Z,49.10
2018-02-22T22:15:25.960Z,48.80
2018-02-22T22:17:53.676Z,48.70
2018-02-22T22:20:21.250Z,48.90
2018-02-22T22:22:48.836Z,48.90
2018-02-22T22:25:16.421Z,48.80
2018-02-22T22:27:44.012Z,48.90
2018-02-22T22:30:11.573Z,49.10
2018-02-22T22:32:39.154Z,49.10
2018-02-22T22:35:07.486Z,49.20
2018-02-22T22:37:35.067Z,49.00
2018-02-22T22:40:02.628Z,49.40
2018-02-22T22:42:30.221Z,49.00
2018-02-22T22:44:57.780Z,48.90
2018-02-22T22:47:25.362Z,49.10
2018-02-22T22:49:53.703Z,49.30
2018-02-22T22:52:21.296Z,49.20
2018-02-22T22:54:48.865Z,49.30
2018-02-22T22:57:17.221Z,48.80
2018-02-22T22:59:45.013Z,48.80
2018-02-22T23:02:12.425Z,49.40
2018-02-22T23:04:40.006Z,49.10
2018-02-22T23:07:08.341Z,49.10
2018-02-22T23:09:35.933Z,49.10
2018-02-22T23:12:03.496Z,49.50
2018-02-22T23:14:31.080Z,49.10
2018-02-22T23:16:59.407Z,49.40
2018-02-22T23:19:26.993Z,49.30
2018-02-22T23:21:54.561Z,49.60
2018-02-22T23:24:22.913Z,49.30
2018-02-22T23:26:50.472Z,49.20
2018-02-22T23:29:18.069Z,49.20
2018-02-22T23:31:45.833Z,49.40
2018-02-22T23:34:13.418Z,49.40
2018-02-22T23:36:40.982Z,49.30
2018-02-22T23:39:08.569Z,49.40
2018-02-22T23:44:43.241Z,48.70
2018-02-22T23:47:10.805Z,48.90
2018-02-22T23:49:38.402Z,49.10
2018-02-22T23:52:05.977Z,48.80
2018-02-22T23:54:33.565Z,48.90
2018-02-22T23:57:01.132Z,48.90
2018-02-22T23:59:28.721Z,48.90
